createdAt,value
2018-07-26T00:00:33.207Z,96484.21
2018-07-26T00:03:57.880Z,96485.70
2018-07-26T00:07:22.543Z,96482.97
2018-07-26T00:10:47.273Z,96490.59
2018-07-26T00:14:11.978Z,96484.43
2018-07-26T00:17:36.786Z,96483.02
2018-07-26T00:21:01.485Z,96482.75
2018-07-26T00:24:26.127Z,96488.42
2018-07-26T00:27:50.789Z,96485.44
2018-07-26T00:31:15.491Z,96493.72
2018-07-26T00:34:40.160Z,96490.62
2018-07-26T00:38:04.963Z,96489.01
2018-07-26T00:41:29.624Z,96491.23
2018-07-26T00:44:54.253Z,96494.71
2018-07-26T00:48:18.942Z,96487.86
2018-07-26T00:51:43.665Z,96490.27
2018-07-26T00:55:08.397Z,96485.17
2018-07-26T00:58:33.065Z,96493.20
2018-07-26T01:01:57.843Z,96496.52
2018-07-26T01:05:22.483Z,96492.60
2018-07-26T01:08:47.133Z,96498.03
2018-07-26T01:12:11.833Z,96501.73
2018-07-26T01:15:36.524Z,96494.67
2018-07-26T01:19:01.300Z,96494.83
2018-07-26T01:22:25.982Z,96492.06
2018-07-26T01:25:50.644Z,96497.64
2018-07-26T01:29:15.392Z,96494.41
2018-07-26T01:32:40.031Z,96487.13
2018-07-26T01:36:04.742Z,96485.36
2018-07-26T01:39:29.387Z,96479.45
2018-07-26T01:44:10.747Z,96476.29
2018-07-26T01:47:35.418Z,96478.95
2018-07-26T01:51:00.062Z,96479.87
2018-07-26T01:54:24.700Z,96478.92
2018-07-26T01:57:49.333Z,96478.83
2018-07-26T02:01:14.283Z,96478.39
2018-07-26T02:04:39.047Z,96485.89
2018-07-26T02:08:03.755Z,96487.92
2018-07-26T02:11:28.147Z,96491.16
2018-07-26T02:14:52.769Z,96481.59
2018-07-26T02:18:17.465Z,96482.15
2018-07-26T02:21:42.133Z,96490.98
2018-07-26T02:25:06.834Z,96480.03
2018-07-26T02:28:31.489Z,96481.80
2018-07-26T02:31:56.189Z,96479.61
2018-07-26T02:35:20.887Z,96469.05
2018-07-26T02:38:45.625Z,96467.70
2018-07-26T02:42:10.771Z,96474.67
2018-07-26T02:45:35.107Z,96469.11
2018-07-26T02:48:59.784Z,96468.36
2018-07-26T02:52:24.436Z,96458.77
2018-07-26T02:55:49.163Z,96469.79
2018-07-26T02:59:13.852Z,96462.88
2018-07-26T03:02:38.785Z,96481.34
2018-07-26T03:06:03.447Z,96479.73
2018-07-26T03:09:28.169Z,96480.23
2018-07-26T03:12:52.855Z,96478.53
2018-07-26T03:16:17.580Z,96485.63
2018-07-26T03:19:42.975Z,96483.66
2018-07-26T03:23:07.717Z,96484.42
2018-07-26T03:26:32.364Z,96488.97
2018-07-26T03:29:57.060Z,96483.66
2018-07-26T03:33:21.808Z,96489.12
2018-07-26T03:36:46.164Z,96492.50
2018-07-26T03:40:10.833Z,96495.98
2018-07-26T03:43:35.538Z,96491.36
2018-07-26T03:47:00.362Z,96498.10
2018-07-26T03:50:25.083Z,96497.09
2018-07-26T03:53:49.739Z,96492.72
2018-07-26T03:57:14.400Z,96498.41
2018-07-26T04:00:39.065Z,96493.16
2018-07-26T04:04:03.799Z,96492.52
2018-07-26T04:07:28.452Z,96502.36
2018-07-26T04:10:53.255Z,96507.28
2018-07-26T04:14:18.100Z,96503.98
2018-07-26T04:17:42.866Z,96506.59
2018-07-26T04:21:07.544Z,96507.83
2018-07-26T04:24:32.224Z,96502.00
2018-07-26T04:27:57.063Z,96497.97
2018-07-26T04:31:21.813Z,96503.63
2018-07-26T04:34:46.593Z,96501.05
2018-07-26T04:38:11.313Z,96507.52
2018-07-26T04:41:36.133Z,96506.72
2018-07-26T04:45:00.831Z,96513.73
2018-07-26T04:48:25.489Z,96526.81
2018-07-26T04:51:50.241Z,96525.38
2018-07-26T04:55:14.941Z,96530.39
2018-07-26T04:58:39.673Z,96529.53
2018-07-26T05:02:04.495Z,96536.88
2018-07-26T05:05:29.281Z,96534.65
2018-07-26T05:08:53.988Z,96543.49
2018-07-26T05:12:18.324Z,96541.50
2018-07-26T05:15:43.025Z,96542.34
2018-07-26T05:19:07.748Z,96539.95
2018-07-26T05:22:32.063Z,96538.11
2018-07-26T05:25:56.781Z,96537.03
2018-07-26T05:29:21.475Z,96541.02
2018-07-26T05:32:46.255Z,96546.97
2018-07-26T05:36:11.013Z,96542.94
2018-07-26T05:39:35.727Z,96542.14
2018-07-26T05:43:00.527Z,96545.27
2018-07-26T05:46:25.265Z,96550.63
2018-07-26T05:49:49.997Z,96551.85
2018-07-26T05:53:14.733Z,96555.87
2018-07-26T05:56:39.427Z,96558.63
2018-07-26T06:00:05.571Z,96561.01
2018-07-26T06:03:30.374Z,96559.00
2018-07-26T06:06:55.152Z,96561.20
2018-07-26T06:10:19.824Z,96558.90
2018-07-26T06:13:44.541Z,96560.32
2018-07-26T06:17:09.400Z,96554.41
2018-07-26T06:20:34.284Z,96552.30
2018-07-26T06:23:58.639Z,96555.66
2018-07-26T06:27:23.512Z,96556.21
2018-07-26T06:30:48.233Z,96551.93
2018-07-26T06:34:13.100Z,96551.33
2018-07-26T06:37:37.923Z,96565.29
2018-07-26T06:41:02.658Z,96557.27
2018-07-26T06:44:27.163Z,96550.27
2018-07-26T06:47:51.909Z,96552.30
2018-07-26T06:51:16.775Z,96557.05
2018-07-26T06:54:41.505Z,96554.34
2018-07-26T06:58:06.271Z,96555.04
2018-07-26T07:01:30.989Z,96559.14
2018-07-26T07:04:55.696Z,96561.22
2018-07-26T07:08:20.664Z,96565.94
2018-07-26T07:11:45.549Z,96561.72
2018-07-26T07:15:10.529Z,96559.94
2018-07-26T07:18:35.464Z,96555.56
2018-07-26T07:22:00.379Z,96553.34
2018-07-26T07:25:25.178Z,96555.36
2018-07-26T07:28:50.175Z,96552.16
2018-07-26T07:32:14.870Z,96549.19
2018-07-26T07:35:39.720Z,96555.80
2018-07-26T07:39:06.578Z,96548.91
2018-07-26T07:42:31.400Z,96546.93
2018-07-26T07:45:56.178Z,96552.57
2018-07-26T07:49:20.585Z,96546.59
2018-07-26T07:52:45.411Z,96548.94
2018-07-26T07:56:10.377Z,96544.98
2018-07-26T07:59:35.325Z,96539.66
2018-07-26T08:02:59.964Z,96540.67
2018-07-26T08:06:24.756Z,96541.31
2018-07-26T08:09:49.591Z,96546.59
2018-07-26T08:13:14.368Z,96545.20
2018-07-26T08:16:39.145Z,96550.78
2018-07-26T08:20:03.634Z,96544.34
2018-07-26T08:23:28.177Z,96538.77
2018-07-26T08:26:53.415Z,96538.70
2018-07-26T08:30:18.093Z,96538.35
2018-07-26T08:33:42.822Z,96531.50
2018-07-26T08:37:07.665Z,96527.20
2018-07-26T08:40:32.404Z,96526.57
2018-07-26T08:43:57.143Z,96522.69
2018-07-26T08:47:21.765Z,96530.59
2018-07-26T08:50:46.473Z,96529.17
2018-07-26T08:55:39.973Z,96526.13
2018-07-26T08:59:04.822Z,96524.02
2018-07-26T09:02:29.927Z,96519.59
2018-07-26T09:05:54.673Z,96517.48
2018-07-26T09:09:19.473Z,96515.30
2018-07-26T09:12:44.197Z,96513.27
2018-07-26T09:16:08.980Z,96511.95
2018-07-26T09:19:33.329Z,96502.47
2018-07-26T09:22:58.173Z,96506.62
2018-07-26T09:26:22.932Z,96500.34
2018-07-26T09:29:52.782Z,96491.70
2018-07-26T09:33:17.634Z,96491.45
2018-07-26T09:36:41.937Z,96487.29
2018-07-26T09:40:06.297Z,96490.59
2018-07-26T09:43:31.078Z,96483.64
2018-07-26T09:46:55.790Z,96489.45
2018-07-26T09:50:20.450Z,96477.41
2018-07-26T09:53:45.188Z,96485.91
2018-07-26T09:57:09.536Z,96481.80
2018-07-26T10:00:39.578Z,96475.96
2018-07-26T10:04:07.238Z,96474.91
2018-07-26T10:07:34.174Z,96469.14
2018-07-26T10:10:59.580Z,96466.03
2018-07-26T10:14:24.976Z,96464.13
2018-07-26T10:17:50.128Z,96463.23
2018-07-26T10:21:15.640Z,96461.69
2018-07-26T10:24:41.446Z,96464.86
2018-07-26T10:28:07.638Z,96455.33
2018-07-26T10:31:33.190Z,96449.56
2018-07-26T10:34:59.494Z,96456.02
2018-07-26T10:38:24.364Z,96446.88
2018-07-26T10:41:57.013Z,96466.91
2018-07-26T10:45:23.133Z,96459.92
2018-07-26T10:48:48.693Z,96447.91
2018-07-26T10:52:13.135Z,96448.59
2018-07-26T10:55:37.994Z,96454.11
2018-07-26T10:59:02.695Z,96446.96
2018-07-26T11:02:27.376Z,96442.34
2018-07-26T11:05:52.186Z,96435.59
2018-07-26T11:09:17.007Z,96437.62
2018-07-26T11:12:41.752Z,96442.78
2018-07-26T11:16:16.353Z,96439.58
2018-07-26T11:19:41.090Z,96443.70
2018-07-26T11:23:05.767Z,96440.94
2018-07-26T11:26:30.427Z,96422.52
2018-07-26T11:29:55.226Z,96429.74
2018-07-26T11:33:19.876Z,96435.94
2018-07-26T11:36:44.588Z,96429.41
2018-07-26T11:40:09.325Z,96433.87
2018-07-26T11:43:34.106Z,96430.45
2018-07-26T11:46:58.795Z,96422.33
2018-07-26T11:50:23.536Z,96418.52
2018-07-26T11:53:48.222Z,96415.95
2018-07-26T11:57:12.879Z,96411.18
2018-07-26T12:00:37.689Z,96417.11
2018-07-26T12:04:02.653Z,96417.52
2018-07-26T12:07:27.356Z,96412.61
2018-07-26T12:10:52.228Z,96407.91
2018-07-26T12:14:17.062Z,96399.72
2018-07-26T12:17:42.310Z,96403.06
2018-07-26T12:21:08.975Z,96399.36
2018-07-26T12:24:33.693Z,96391.43
2018-07-26T12:27:58.506Z,96399.37
2018-07-26T12:31:23.557Z,96394.72
2018-07-26T12:34:47.967Z,96385.73
2018-07-26T12:38:12.669Z,96390.26
2018-07-26T12:41:37.370Z,96379.49
2018-07-26T12:45:02.049Z,96383.73
2018-07-26T12:48:26.463Z,96386.41
2018-07-26T12:51:50.815Z,96383.91
2018-07-26T12:55:15.218Z,96375.33
2018-07-26T12:58:39.529Z,96372.16
2018-07-26T13:02:04.292Z,96373.82
2018-07-26T13:05:29.064Z,96362.72
2018-07-26T13:08:54.104Z,96368.65
2018-07-26T13:12:18.903Z,96366.83
2018-07-26T13:15:43.608Z,96362.47
2018-07-26T13:19:08.478Z,96357.37
2018-07-26T13:22:33.121Z,96368.09
2018-07-26T13:25:57.863Z,96343.72
2018-07-26T13:29:23.151Z,96349.69
2018-07-26T13:32:47.829Z,96347.42
2018-07-26T13:36:13.773Z,96349.76
2018-07-26T13:39:38.607Z,96345.19
2018-07-26T13:43:03.375Z,96347.07
2018-07-26T13:46:28.152Z,96341.12
2018-07-26T13:49:53.710Z,96337.11
2018-07-26T13:53:18.453Z,96339.78
2018-07-26T13:56:43.131Z,96329.55
2018-07-26T14:00:07.992Z,96328.34
2018-07-26T14:03:32.749Z,96327.32
2018-07-26T14:06:57.649Z,96333.44
2018-07-26T14:10:22.398Z,96322.23
2018-07-26T14:13:47.061Z,96324.46
2018-07-26T14:17:11.823Z,96327.04
2018-07-26T14:20:36.517Z,96319.36
2018-07-26T14:24:02.986Z,96320.59
2018-07-26T14:27:27.881Z,96318.73
2018-07-26T14:30:52.266Z,96315.55
2018-07-26T14:34:17.070Z,96300.69
2018-07-26T14:37:41.788Z,96302.86
2018-07-26T14:41:06.452Z,96306.64
2018-07-26T14:44:31.108Z,96306.94
2018-07-26T14:47:55.803Z,96303.91
2018-07-26T14:51:20.256Z,96298.77
2018-07-26T14:54:44.994Z,96302.59
2018-07-26T14:58:09.728Z,96297.36
2018-07-26T15:01:34.458Z,96297.78
2018-07-26T15:04:59.148Z,96309.17
2018-07-26T15:08:23.800Z,96302.54
2018-07-26T15:11:48.601Z,96310.08
2018-07-26T15:15:13.286Z,96295.01
2018-07-26T15:18:37.954Z,96295.30
2018-07-26T15:22:02.712Z,96293.04
2018-07-26T15:25:27.877Z,96294.77
2018-07-26T15:28:52.555Z,96292.32
2018-07-26T15:32:17.310Z,96300.58
2018-07-26T15:35:41.965Z,96302.00
2018-07-26T15:39:09.810Z,96299.42
2018-07-26T15:42:34.544Z,96294.41
2018-07-26T15:45:59.282Z,96294.59
2018-07-26T15:49:23.954Z,96298.69
2018-07-26T15:52:48.630Z,96299.89
2018-07-26T15:56:13.337Z,96292.45
2018-07-26T15:59:38.073Z,96295.38
2018-07-26T16:03:02.856Z,96298.29
2018-07-26T16:06:27.637Z,96291.21
2018-07-26T16:09:52.341Z,96289.98
2018-07-26T16:13:17.066Z,96277.87
2018-07-26T16:16:41.813Z,96278.66
2018-07-26T16:20:08.501Z,96282.34
2018-07-26T16:23:33.174Z,96286.89
2018-07-26T16:26:57.832Z,96290.44
2018-07-26T16:30:22.648Z,96289.05
2018-07-26T16:33:47.300Z,96279.08
2018-07-26T16:37:12.052Z,96287.47
2018-07-26T16:40:36.745Z,96293.33
2018-07-26T16:44:01.451Z,96292.28
2018-07-26T16:47:26.159Z,96300.06
2018-07-26T16:50:50.842Z,96298.16
2018-07-26T16:54:15.513Z,96291.63
2018-07-26T16:57:40.286Z,96291.63
2018-07-26T17:01:05.116Z,96297.48
2018-07-26T17:04:29.773Z,96296.90
2018-07-26T17:07:54.766Z,96300.30
2018-07-26T17:11:19.756Z,96306.13
2018-07-26T17:14:44.400Z,96297.03
2018-07-26T17:18:09.652Z,96302.99
2018-07-26T17:21:34.633Z,96301.38
2018-07-26T17:24:59.408Z,96298.22
2018-07-26T17:28:24.282Z,96304.09
2018-07-26T17:31:49.080Z,96303.89
2018-07-26T17:35:13.810Z,96302.70
2018-07-26T17:38:38.524Z,96303.77
2018-07-26T17:42:03.382Z,96305.82
2018-07-26T17:45:28.273Z,96302.91
2018-07-26T17:48:53.056Z,96312.15
2018-07-26T17:52:17.895Z,96307.97
2018-07-26T17:55:42.661Z,96310.67
2018-07-26T17:59:07.749Z,96310.38
2018-07-26T18:02:32.613Z,96315.98
2018-07-26T18:05:57.523Z,96320.70
2018-07-26T18:09:22.492Z,96322.03
2018-07-26T18:12:47.279Z,96317.39
2018-07-26T18:16:12.077Z,96316.53
2018-07-26T18:19:36.020Z,96322.41
2018-07-26T18:22:59.596Z,96327.50
2018-07-26T18:26:23.240Z,96328.83
2018-07-26T18:29:47.986Z,96339.23
2018-07-26T18:33:11.962Z,96329.33
2018-07-26T18:36:35.808Z,96334.06
2018-07-26T18:39:59.769Z,96338.77
2018-07-26T18:43:24.069Z,96343.39
2018-07-26T18:46:48.005Z,96341.33
2018-07-26T18:50:12.134Z,96343.37
2018-07-26T18:53:36.236Z,96341.11
2018-07-26T18:57:00.158Z,96354.82
2018-07-26T19:00:24.155Z,96349.75
2018-07-26T19:03:48.106Z,96352.78
2018-07-26T19:07:12.070Z,96352.44
2018-07-26T19:10:36.108Z,96356.23
2018-07-26T19:14:00.102Z,96362.55
2018-07-26T19:17:24.133Z,96365.08
2018-07-26T19:20:49.019Z,96362.97
2018-07-26T19:24:13.082Z,96370.50
2018-07-26T19:27:37.743Z,96370.58
2018-07-26T19:31:01.728Z,96377.39
2018-07-26T19:34:26.490Z,96377.91
2018-07-26T19:37:51.260Z,96383.42
2018-07-26T19:41:16.148Z,96384.33
2018-07-26T19:44:40.865Z,96385.84
2018-07-26T19:48:05.593Z,96387.05
2018-07-26T19:51:30.571Z,96395.80
2018-07-26T19:54:55.317Z,96407.66
2018-07-26T19:58:19.657Z,96396.63
2018-07-26T20:01:44.377Z,96401.33
2018-07-26T20:05:09.879Z,96417.17
2018-07-26T20:08:34.725Z,96414.16
2018-07-26T20:11:59.421Z,96412.73
2018-07-26T20:15:24.183Z,96412.02
2018-07-26T20:18:48.551Z,96412.75
2018-07-26T20:22:13.388Z,96408.16
2018-07-26T20:25:45.383Z,96412.30
2018-07-26T20:29:10.085Z,96415.12
2018-07-26T20:32:34.903Z,96416.15
2018-07-26T20:35:59.610Z,96417.78
2018-07-26T20:39:24.283Z,96420.30
2018-07-26T20:42:48.965Z,96422.91
2018-07-26T20:46:13.420Z,96424.21
2018-07-26T20:49:38.182Z,96424.48
2018-07-26T20:53:02.866Z,96425.83
2018-07-26T20:56:27.638Z,96426.27
2018-07-26T20:59:52.339Z,96427.91
2018-07-26T21:03:17.084Z,96430.32
2018-07-26T21:06:41.878Z,96430.38
2018-07-26T21:10:08.407Z,96428.50
2018-07-26T21:13:32.729Z,96431.03
2018-07-26T21:16:57.357Z,96433.05
2018-07-26T21:20:22.056Z,96433.22
2018-07-26T21:23:46.786Z,96428.11
2018-07-26T21:27:11.158Z,96432.87
2018-07-26T21:30:35.453Z,96433.36
2018-07-26T21:34:00.090Z,96426.27
2018-07-26T21:37:24.766Z,96427.39
2018-07-26T21:40:49.415Z,96442.67
2018-07-26T21:44:14.136Z,96444.39
2018-07-26T21:47:38.833Z,96443.79
2018-07-26T21:51:03.532Z,96446.11
2018-07-26T21:54:28.186Z,96446.10
2018-07-26T21:57:52.898Z,96445.47
2018-07-26T22:01:17.308Z,96448.16
2018-07-26T22:04:42.296Z,96451.51
2018-07-26T22:08:07.003Z,96451.22
2018-07-26T22:11:32.396Z,96447.95
2018-07-26T22:14:57.071Z,96447.59
2018-07-26T22:18:22.725Z,96444.28
2018-07-26T22:21:47.382Z,96449.59
2018-07-26T22:25:12.193Z,96448.61
2018-07-26T22:28:36.899Z,96444.31
2018-07-26T22:32:01.279Z,96441.16
2018-07-26T22:35:25.184Z,96435.19
2018-07-26T22:38:49.120Z,96430.84
2018-07-26T22:42:13.114Z,96427.74
2018-07-26T22:45:37.471Z,96423.77
2018-07-26T22:49:02.120Z,96420.08
2018-07-26T22:52:26.009Z,96417.77
2018-07-26T22:55:49.967Z,96414.61
2018-07-26T22:59:13.898Z,96414.41
2018-07-26T23:02:38.579Z,96413.94
2018-07-26T23:06:03.248Z,96412.63
2018-07-26T23:09:27.162Z,96412.30
2018-07-26T23:12:51.537Z,96418.70
2018-07-26T23:16:15.403Z,96413.18
2018-07-26T23:19:39.273Z,96416.28
2018-07-26T23:23:03.192Z,96415.25
2018-07-26T23:26:27.128Z,96413.55
2018-07-26T23:29:51.001Z,96420.13
2018-07-26T23:33:14.537Z,96421.80
2018-07-26T23:36:38.473Z,96421.55
2018-07-26T23:40:02.375Z,96420.41
2018-07-26T23:43:26.216Z,96418.42
2018-07-26T23:46:50.097Z,96419.43
2018-07-26T23:50:13.622Z,96423.32
2018-07-26T23:53:37.643Z,96423.50
2018-07-26T23:57:01.540Z,96416.32
